createdAt,value
2019-05-29T00:01:40.968Z,12.70
2019-05-29T00:04:10.213Z,12.70
2019-05-29T00:06:39.108Z,12.60
2019-05-29T00:09:08.155Z,12.40
2019-05-29T00:11:36.985Z,12.30
2019-05-29T00:14:21.720Z,12.40
2019-05-29T00:16:36.316Z,12.30
2019-05-29T00:19:06.958Z,12.30
2019-05-29T00:21:35.772Z,12.40
2019-05-29T00:24:06.252Z,12.30
2019-05-29T00:26:35.137Z,12.30
2019-05-29T00:29:04.017Z,12.30
2019-05-29T00:31:33.096Z,12.20
2019-05-29T00:34:01.883Z,12.20
2019-05-29T00:36:30.689Z,12.20
2019-05-29T00:38:59.999Z,12.00
2019-05-29T00:41:29.064Z,12.10
2019-05-29T00:43:57.874Z,12.10
2019-05-29T00:46:26.724Z,12.00
2019-05-29T00:48:55.840Z,12.00
2019-05-29T00:51:24.941Z,12.00
2019-05-29T00:53:53.785Z,11.90
2019-05-29T00:56:23.228Z,11.90
2019-05-29T00:58:52.020Z,11.80
2019-05-29T01:01:20.850Z,11.80
2019-05-29T01:03:49.640Z,11.90
2019-05-29T01:06:20.150Z,11.90
2019-05-29T01:08:49.434Z,11.80
2019-05-29T01:11:18.884Z,11.80
2019-05-29T01:13:47.724Z,11.80
2019-05-29T01:16:17.459Z,11.90
2019-05-29T01:18:46.616Z,11.90
2019-05-29T01:21:15.982Z,11.90
2019-05-29T01:23:44.916Z,12.00
2019-05-29T01:26:14.529Z,12.10
2019-05-29T01:28:43.451Z,12.10
2019-05-29T01:31:13.527Z,12.10
2019-05-29T01:33:42.581Z,12.00
2019-05-29T01:36:11.411Z,12.00
2019-05-29T01:38:40.184Z,11.90
2019-05-29T01:41:09.287Z,11.90
2019-05-29T01:43:38.064Z,12.00
2019-05-29T01:46:06.856Z,11.90
2019-05-29T01:48:35.967Z,11.80
2019-05-29T01:51:05.476Z,11.90
2019-05-29T01:53:34.257Z,11.90
2019-05-29T01:56:03.614Z,11.80
2019-05-29T01:58:32.762Z,11.90
2019-05-29T02:01:01.880Z,11.80
2019-05-29T02:03:30.659Z,11.90
2019-05-29T02:05:59.448Z,12.00
2019-05-29T02:08:28.371Z,11.90
2019-05-29T02:10:57.189Z,11.90
2019-05-29T02:13:25.962Z,11.90
2019-05-29T02:15:54.776Z,11.90
2019-05-29T02:18:25.008Z,11.80
2019-05-29T02:20:53.948Z,11.80
2019-05-29T02:23:24.139Z,11.90
2019-05-29T02:25:53.459Z,11.80
2019-05-29T02:28:22.639Z,11.80
2019-05-29T02:30:51.874Z,11.80
2019-05-29T02:33:21.957Z,11.70
2019-05-29T02:35:51.057Z,11.70
2019-05-29T02:38:20.514Z,11.80
2019-05-29T02:40:49.779Z,11.70
2019-05-29T02:43:19.309Z,11.70
2019-05-29T02:45:54.429Z,11.70
2019-05-29T02:48:20.935Z,11.60
2019-05-29T02:50:50.388Z,11.60
2019-05-29T02:53:20.067Z,11.50
2019-05-29T02:55:48.956Z,11.40
2019-05-29T02:58:17.985Z,11.40
2019-05-29T03:00:54.933Z,11.30
2019-05-29T03:03:26.541Z,11.40
2019-05-29T03:05:56.087Z,11.50
2019-05-29T03:08:26.945Z,11.50
2019-05-29T03:10:55.509Z,11.50
2019-05-29T03:13:25.481Z,11.40
2019-05-29T03:16:09.471Z,11.20
2019-05-29T03:18:27.528Z,11.30
2019-05-29T03:20:56.467Z,11.30
2019-05-29T03:23:26.585Z,11.40
2019-05-29T03:25:55.769Z,11.50
2019-05-29T03:28:25.709Z,11.50
2019-05-29T03:30:54.707Z,11.50
2019-05-29T03:33:23.556Z,11.40
2019-05-29T03:35:52.411Z,11.40
2019-05-29T03:38:21.186Z,11.50
2019-05-29T03:40:50.289Z,11.50
2019-05-29T03:43:19.081Z,11.40
2019-05-29T03:45:47.976Z,11.40
2019-05-29T03:48:16.781Z,11.40
2019-05-29T03:50:45.627Z,11.30
2019-05-29T03:53:14.413Z,11.30
2019-05-29T03:55:43.575Z,11.30
2019-05-29T03:58:12.374Z,11.30
2019-05-29T04:00:46.049Z,11.20
2019-05-29T04:03:11.652Z,11.20
2019-05-29T04:05:40.834Z,11.20
2019-05-29T04:08:09.612Z,11.30
2019-05-29T04:10:39.781Z,11.20
2019-05-29T04:13:09.249Z,11.10
2019-05-29T04:15:41.007Z,11.20
2019-05-29T04:18:10.052Z,11.30
2019-05-29T04:20:39.228Z,11.20
2019-05-29T04:23:08.583Z,11.20
2019-05-29T04:25:42.591Z,11.30
2019-05-29T04:28:09.187Z,11.30
2019-05-29T04:30:38.994Z,11.30
2019-05-29T04:33:08.418Z,11.20
2019-05-29T04:35:39.588Z,11.00
2019-05-29T04:38:07.820Z,11.10
2019-05-29T04:40:37.511Z,11.10
2019-05-29T04:43:07.509Z,11.10
2019-05-29T04:45:39.195Z,11.20
2019-05-29T04:48:07.224Z,11.10
2019-05-29T04:50:38.233Z,11.20
2019-05-29T04:53:06.637Z,11.30
2019-05-29T04:55:35.469Z,11.30
2019-05-29T04:58:04.268Z,11.40
2019-05-29T05:00:33.190Z,11.30
2019-05-29T05:03:02.421Z,11.40
2019-05-29T05:05:31.301Z,11.50
2019-05-29T05:08:00.166Z,11.50
2019-05-29T05:10:37.819Z,11.40
2019-05-29T05:13:07.308Z,11.30
2019-05-29T05:15:37.842Z,11.30
2019-05-29T05:18:07.448Z,11.30
2019-05-29T05:20:36.465Z,11.30
2019-05-29T05:23:06.232Z,11.40
2019-05-29T05:25:36.368Z,11.50
2019-05-29T05:28:05.408Z,11.50
2019-05-29T05:30:34.435Z,11.50
2019-05-29T05:33:03.338Z,11.60
2019-05-29T05:35:32.704Z,11.90
2019-05-29T05:38:01.833Z,12.00
2019-05-29T05:40:30.850Z,12.00
2019-05-29T05:42:59.897Z,12.00
2019-05-29T05:45:28.696Z,12.10
2019-05-29T05:47:58.176Z,12.30
2019-05-29T05:50:27.341Z,12.30
2019-05-29T05:52:56.248Z,12.40
2019-05-29T05:55:25.498Z,12.20
2019-05-29T05:57:54.356Z,12.20
2019-05-29T06:00:35.751Z,12.40
2019-05-29T06:03:05.493Z,12.50
2019-05-29T06:05:36.068Z,12.50
2019-05-29T06:08:05.216Z,12.60
2019-05-29T06:10:34.616Z,12.60
2019-05-29T06:13:03.487Z,12.70
2019-05-29T06:15:32.428Z,12.80
2019-05-29T06:18:19.880Z,12.90
2019-05-29T06:20:32.660Z,12.90
2019-05-29T06:23:01.647Z,12.80
2019-05-29T06:25:30.504Z,12.80
2019-05-29T06:27:59.614Z,12.80
2019-05-29T06:30:28.542Z,12.90
2019-05-29T06:32:57.400Z,12.80
2019-05-29T06:35:26.232Z,12.70
2019-05-29T06:37:55.016Z,12.70
2019-05-29T06:40:33.922Z,12.80
2019-05-29T06:43:03.401Z,12.80
2019-05-29T06:45:33.809Z,12.80
2019-05-29T06:48:05.272Z,12.80
2019-05-29T06:50:35.300Z,12.80
2019-05-29T06:53:04.615Z,12.80
2019-05-29T06:55:33.426Z,12.80
2019-05-29T06:58:02.373Z,12.80
2019-05-29T07:00:35.173Z,12.70
2019-05-29T07:03:02.191Z,12.60
2019-05-29T07:05:31.343Z,12.50
2019-05-29T07:08:16.572Z,12.20
2019-05-29T07:10:30.933Z,12.30
2019-05-29T07:12:59.707Z,12.50
2019-05-29T07:15:28.619Z,12.80
2019-05-29T07:17:57.417Z,12.80
2019-05-29T07:20:26.303Z,13.10
2019-05-29T07:22:55.083Z,13.10
2019-05-29T07:25:24.170Z,13.00
2019-05-29T07:27:52.952Z,13.10
2019-05-29T07:30:23.067Z,13.20
2019-05-29T07:32:58.568Z,13.30
2019-05-29T07:35:22.615Z,13.40
2019-05-29T07:37:51.398Z,13.40
2019-05-29T07:40:20.550Z,13.50
2019-05-29T07:42:55.106Z,13.60
2019-05-29T07:45:20.759Z,13.80
2019-05-29T07:47:49.635Z,13.80
2019-05-29T07:50:19.933Z,14.00
2019-05-29T07:52:49.120Z,14.00
2019-05-29T07:55:18.239Z,14.10
2019-05-29T07:57:47.254Z,14.20
2019-05-29T08:00:16.860Z,14.20
2019-05-29T08:02:45.726Z,14.20
2019-05-29T08:05:15.266Z,14.20
2019-05-29T08:07:45.412Z,14.30
2019-05-29T08:10:15.931Z,14.30
2019-05-29T08:12:50.458Z,14.60
2019-05-29T08:15:15.843Z,14.60
2019-05-29T08:17:46.071Z,14.60
2019-05-29T08:20:15.251Z,14.60
2019-05-29T08:22:44.416Z,14.60
2019-05-29T08:25:14.874Z,14.60
2019-05-29T08:27:44.736Z,14.70
2019-05-29T08:30:14.165Z,14.50
2019-05-29T08:32:43.661Z,14.50
2019-05-29T08:35:12.957Z,14.60
2019-05-29T08:37:42.773Z,14.70
2019-05-29T08:40:12.167Z,14.70
2019-05-29T08:42:41.116Z,14.80
2019-05-29T08:45:10.499Z,14.90
2019-05-29T08:47:39.675Z,15.00
2019-05-29T08:50:18.187Z,15.10
2019-05-29T08:52:39.912Z,15.10
2019-05-29T08:55:09.927Z,15.20
2019-05-29T08:57:38.713Z,15.10
2019-05-29T09:00:08.552Z,15.20
2019-05-29T09:02:37.339Z,15.20
2019-05-29T09:05:06.878Z,15.30
2019-05-29T09:07:35.730Z,15.30
2019-05-29T09:10:05.157Z,15.40
2019-05-29T09:12:33.975Z,15.50
2019-05-29T09:15:02.927Z,15.50
2019-05-29T09:17:34.486Z,15.50
2019-05-29T09:20:02.680Z,15.50
2019-05-29T09:22:31.830Z,15.60
2019-05-29T09:25:00.934Z,15.70
2019-05-29T09:27:30.008Z,15.60
2019-05-29T09:29:58.864Z,15.80
2019-05-29T09:32:48.888Z,16.00
2019-05-29T09:34:59.108Z,16.20
2019-05-29T09:37:28.192Z,16.40
2019-05-29T09:39:56.955Z,16.50
2019-05-29T09:42:25.751Z,16.50
2019-05-29T09:44:54.545Z,16.70
2019-05-29T09:47:24.296Z,16.50
2019-05-29T09:49:54.642Z,16.60
2019-05-29T09:52:23.428Z,16.60
2019-05-29T09:54:53.571Z,16.60
2019-05-29T09:57:23.060Z,16.70
2019-05-29T09:59:53.817Z,16.80
2019-05-29T10:02:22.656Z,16.70
2019-05-29T10:04:53.121Z,16.50
2019-05-29T10:07:22.550Z,16.40
2019-05-29T10:09:51.323Z,16.60
2019-05-29T10:12:20.442Z,16.80
2019-05-29T10:14:51.411Z,16.60
2019-05-29T10:17:19.904Z,16.60
2019-05-29T10:19:49.004Z,16.50
2019-05-29T10:22:17.910Z,16.30
2019-05-29T10:24:46.990Z,16.10
2019-05-29T10:27:16.052Z,16.30
2019-05-29T10:29:48.461Z,16.40
2019-05-29T10:32:15.355Z,16.50
2019-05-29T10:34:44.426Z,16.70
2019-05-29T10:37:13.342Z,17.00
2019-05-29T10:39:42.810Z,17.10
2019-05-29T10:42:12.013Z,17.10
2019-05-29T10:44:40.787Z,17.20
2019-05-29T10:47:09.741Z,17.10
2019-05-29T10:49:38.523Z,16.80
2019-05-29T10:52:16.162Z,16.60
2019-05-29T10:54:39.330Z,16.40
2019-05-29T10:57:08.433Z,16.50
2019-05-29T10:59:37.951Z,16.50
2019-05-29T11:02:06.743Z,16.70
2019-05-29T11:04:35.801Z,17.00
2019-05-29T11:07:04.929Z,16.90
2019-05-29T11:09:43.905Z,17.10
2019-05-29T11:12:04.940Z,17.10
2019-05-29T11:14:33.721Z,17.20
2019-05-29T11:17:02.755Z,17.30
2019-05-29T11:19:31.522Z,17.40
2019-05-29T11:22:16.292Z,17.50
2019-05-29T11:24:31.108Z,17.60
2019-05-29T11:27:00.161Z,17.70
2019-05-29T11:29:29.174Z,17.80
2019-05-29T11:31:58.970Z,17.80
2019-05-29T11:34:28.070Z,17.80
2019-05-29T11:36:58.249Z,17.80
2019-05-29T11:39:27.736Z,17.80
2019-05-29T11:41:56.864Z,18.00
2019-05-29T11:44:25.908Z,18.00
2019-05-29T11:46:56.097Z,17.90
2019-05-29T11:49:25.472Z,17.80
2019-05-29T11:52:17.008Z,17.80
2019-05-29T11:54:24.762Z,17.80
2019-05-29T11:56:54.060Z,17.60
2019-05-29T11:59:24.146Z,17.50
2019-05-29T12:01:55.356Z,17.50
2019-05-29T12:04:26.893Z,17.60
2019-05-29T12:06:55.322Z,17.90
2019-05-29T12:09:32.756Z,18.10
2019-05-29T12:11:56.124Z,18.10
2019-05-29T12:14:25.111Z,17.90
2019-05-29T12:16:54.402Z,17.90
2019-05-29T12:19:24.508Z,17.90
2019-05-29T12:21:54.400Z,17.90
2019-05-29T12:24:23.423Z,17.90
2019-05-29T12:26:52.560Z,18.00
2019-05-29T12:29:21.403Z,18.00
2019-05-29T12:31:50.193Z,18.10
2019-05-29T12:34:19.544Z,18.10
2019-05-29T12:36:48.417Z,17.90
2019-05-29T12:39:17.287Z,17.70
2019-05-29T12:41:46.072Z,17.70
2019-05-29T12:44:14.851Z,17.90
2019-05-29T12:46:43.626Z,18.00
2019-05-29T12:49:12.500Z,18.30
2019-05-29T12:51:41.536Z,18.40
2019-05-29T12:54:10.424Z,18.60
2019-05-29T12:56:39.274Z,18.60
2019-05-29T12:59:08.624Z,18.80
2019-05-29T13:01:37.402Z,18.80
2019-05-29T13:04:06.265Z,19.00
2019-05-29T13:06:35.394Z,19.00
2019-05-29T13:09:06.519Z,19.00
2019-05-29T13:11:35.613Z,19.00
2019-05-29T13:14:04.932Z,19.00
2019-05-29T13:16:33.699Z,19.10
2019-05-29T13:19:03.459Z,19.10
2019-05-29T13:21:32.410Z,19.00
2019-05-29T13:24:02.772Z,18.90
2019-05-29T13:26:31.944Z,19.00
2019-05-29T13:29:01.671Z,19.20
2019-05-29T13:31:30.615Z,19.40
2019-05-29T13:33:59.963Z,19.30
2019-05-29T13:36:28.889Z,19.40
2019-05-29T13:38:58.065Z,19.30
2019-05-29T13:41:26.944Z,19.40
2019-05-29T13:43:56.425Z,19.60
2019-05-29T13:46:27.154Z,19.40
2019-05-29T13:48:56.739Z,19.30
2019-05-29T13:51:25.864Z,19.10
2019-05-29T13:54:03.734Z,19.00
2019-05-29T13:56:25.232Z,18.90
2019-05-29T13:58:54.396Z,18.90
2019-05-29T14:01:23.241Z,18.90
2019-05-29T14:03:52.286Z,18.80
2019-05-29T14:06:21.752Z,18.90
2019-05-29T14:08:50.545Z,18.90
2019-05-29T14:11:19.409Z,18.90
2019-05-29T14:13:48.193Z,18.90
2019-05-29T14:16:17.130Z,19.00
2019-05-29T14:18:46.070Z,19.10
2019-05-29T14:21:15.137Z,19.10
2019-05-29T14:23:44.305Z,19.10
2019-05-29T14:26:13.396Z,19.20
2019-05-29T14:28:42.527Z,19.20
2019-05-29T14:31:12.164Z,19.30
2019-05-29T14:33:41.391Z,19.10
2019-05-29T14:36:11.376Z,19.20
2019-05-29T14:38:40.765Z,19.20
2019-05-29T14:41:09.987Z,19.30
2019-05-29T14:43:38.805Z,19.20
2019-05-29T14:46:08.141Z,19.20
2019-05-29T14:48:37.367Z,19.30
2019-05-29T14:51:06.599Z,19.40
2019-05-29T14:53:35.552Z,19.40
2019-05-29T14:56:04.750Z,19.20
2019-05-29T14:58:36.992Z,19.30
2019-05-29T15:01:09.182Z,19.40
2019-05-29T15:03:38.670Z,19.40
2019-05-29T15:06:07.866Z,19.40
2019-05-29T15:08:37.005Z,19.40
2019-05-29T15:11:06.264Z,19.50
2019-05-29T15:13:35.038Z,19.40
2019-05-29T15:16:04.660Z,19.50
2019-05-29T15:18:33.676Z,19.40
2019-05-29T15:21:02.752Z,19.30
2019-05-29T15:23:31.525Z,19.30
2019-05-29T15:26:00.850Z,19.10
2019-05-29T15:28:29.947Z,18.90
2019-05-29T15:30:58.812Z,18.80
2019-05-29T15:33:27.656Z,18.90
2019-05-29T15:35:56.912Z,18.70
2019-05-29T15:38:25.670Z,18.70
2019-05-29T15:40:54.953Z,18.50
2019-05-29T15:43:23.719Z,18.50
2019-05-29T15:45:52.616Z,18.30
2019-05-29T15:48:21.407Z,18.20
2019-05-29T15:50:50.200Z,18.10
2019-05-29T15:53:19.549Z,18.10
2019-05-29T15:55:48.654Z,18.10
2019-05-29T15:58:18.024Z,17.90
2019-05-29T16:00:47.531Z,18.00
2019-05-29T16:03:17.681Z,18.10
2019-05-29T16:05:46.644Z,18.10
2019-05-29T16:08:16.100Z,18.30
2019-05-29T16:10:44.936Z,18.30
2019-05-29T16:13:14.993Z,18.30
2019-05-29T16:15:43.923Z,18.40
2019-05-29T16:18:23.188Z,18.40
2019-05-29T16:20:43.336Z,18.40
2019-05-29T16:23:17.004Z,18.30
2019-05-29T16:25:43.524Z,18.20
2019-05-29T16:28:13.076Z,18.20
2019-05-29T16:30:42.231Z,18.20
2019-05-29T16:33:12.840Z,18.10
2019-05-29T16:35:42.211Z,18.00
2019-05-29T16:38:11.521Z,18.10
2019-05-29T16:40:40.489Z,18.10
2019-05-29T16:43:09.270Z,18.20
2019-05-29T16:45:38.080Z,18.20
2019-05-29T16:48:06.957Z,18.20
2019-05-29T16:50:35.764Z,18.20
2019-05-29T16:53:04.686Z,18.10
2019-05-29T16:55:33.478Z,18.10
2019-05-29T16:58:02.276Z,18.10
2019-05-29T17:00:31.650Z,18.30
2019-05-29T17:03:00.434Z,18.30
2019-05-29T17:05:29.232Z,18.30
2019-05-29T17:07:58.455Z,18.30
2019-05-29T17:10:45.129Z,18.30
2019-05-29T17:13:14.670Z,18.30
2019-05-29T17:15:43.792Z,18.30
2019-05-29T17:18:12.807Z,18.30
2019-05-29T17:20:43.237Z,18.30
2019-05-29T17:23:12.270Z,18.20
2019-05-29T17:25:41.225Z,18.00
2019-05-29T17:28:10.437Z,17.90
2019-05-29T17:30:39.233Z,17.90
2019-05-29T17:33:08.428Z,18.00
2019-05-29T17:35:37.279Z,18.00
2019-05-29T17:38:06.220Z,18.00
2019-05-29T17:40:35.131Z,18.00
2019-05-29T17:43:04.011Z,18.00
2019-05-29T17:45:33.108Z,18.10
2019-05-29T17:48:02.034Z,18.10
2019-05-29T17:50:31.513Z,18.20
2019-05-29T17:53:00.828Z,18.20
2019-05-29T17:55:29.831Z,18.30
2019-05-29T17:57:58.884Z,18.30
2019-05-29T18:00:28.376Z,18.30
2019-05-29T18:02:57.568Z,18.30
2019-05-29T18:05:26.772Z,18.30
2019-05-29T18:07:55.992Z,18.30
2019-05-29T18:10:25.696Z,18.30
2019-05-29T18:12:54.909Z,18.20
2019-05-29T18:15:23.933Z,18.00
2019-05-29T18:17:52.813Z,17.80
2019-05-29T18:20:21.813Z,17.70
2019-05-29T18:22:51.184Z,17.60
2019-05-29T18:25:21.815Z,17.50
2019-05-29T18:27:50.781Z,17.40
2019-05-29T18:30:20.303Z,17.30
2019-05-29T18:32:49.609Z,17.30
2019-05-29T18:35:19.017Z,17.30
2019-05-29T18:37:48.209Z,17.20
2019-05-29T18:40:20.070Z,17.20
2019-05-29T18:42:49.112Z,17.10
2019-05-29T18:45:20.949Z,17.10
2019-05-29T18:47:49.610Z,17.00
2019-05-29T18:50:19.030Z,16.70
2019-05-29T18:52:47.887Z,16.60
2019-05-29T18:55:16.920Z,16.50
2019-05-29T18:57:45.703Z,16.40
2019-05-29T19:00:15.605Z,16.30
2019-05-29T19:02:44.648Z,16.30
2019-05-29T19:05:14.575Z,16.30
2019-05-29T19:07:43.757Z,16.30
2019-05-29T19:10:14.837Z,16.30
2019-05-29T19:12:43.628Z,16.20
2019-05-29T19:15:12.831Z,16.10
2019-05-29T19:17:42.033Z,16.10
2019-05-29T19:20:11.500Z,16.10
2019-05-29T19:22:40.271Z,16.10
2019-05-29T19:25:09.206Z,16.10
2019-05-29T19:27:41.883Z,16.00
2019-05-29T19:30:09.432Z,15.90
2019-05-29T19:32:38.207Z,15.90
2019-05-29T19:35:07.971Z,15.80
2019-05-29T19:37:36.751Z,15.70
2019-05-29T19:40:06.163Z,15.70
2019-05-29T19:42:35.067Z,15.70
2019-05-29T19:45:04.424Z,15.50
2019-05-29T19:47:33.495Z,15.40
2019-05-29T19:50:02.291Z,15.20
2019-05-29T19:52:31.410Z,15.10
2019-05-29T19:55:00.508Z,15.00
2019-05-29T19:57:29.894Z,15.00
2019-05-29T20:00:00.545Z,14.90
2019-05-29T20:02:30.428Z,14.80
2019-05-29T20:04:59.310Z,14.70
2019-05-29T20:07:28.950Z,14.70
2019-05-29T20:09:58.257Z,14.70
2019-05-29T20:12:27.515Z,14.70
2019-05-29T20:14:56.712Z,14.70
2019-05-29T20:17:25.503Z,14.60
2019-05-29T20:19:54.959Z,14.60
2019-05-29T20:22:24.131Z,14.50
2019-05-29T20:24:52.924Z,14.40
2019-05-29T22:14:01.749Z,13.90
2019-05-29T22:16:30.945Z,13.90
2019-05-29T22:19:03.788Z,14.00
2019-05-29T22:21:31.948Z,13.90
2019-05-29T22:24:01.394Z,13.90
2019-05-29T22:26:30.359Z,14.00
2019-05-29T22:29:16.697Z,14.00
2019-05-29T22:31:29.667Z,14.00
2019-05-29T22:33:59.502Z,14.10
2019-05-29T22:36:28.516Z,14.10
2019-05-29T22:38:57.519Z,14.10
2019-05-29T22:41:26.592Z,14.10
2019-05-29T22:43:55.472Z,14.10
2019-05-29T22:46:24.341Z,14.20
2019-05-29T22:48:53.734Z,14.20
2019-05-29T22:51:22.644Z,14.20
2019-05-29T22:53:52.450Z,14.20
2019-05-29T22:56:22.260Z,14.30
2019-05-29T22:58:52.023Z,14.30
2019-05-29T23:01:21.208Z,14.40
2019-05-29T23:03:50.016Z,14.40
2019-05-29T23:06:19.147Z,14.40
2019-05-29T23:08:47.932Z,14.30
2019-05-29T23:11:16.820Z,14.30
2019-05-29T23:13:45.579Z,14.30
2019-05-29T23:16:14.368Z,14.20
2019-05-29T23:18:43.151Z,14.30
2019-05-29T23:21:11.941Z,14.20
2019-05-29T23:23:41.003Z,14.10
2019-05-29T23:26:09.819Z,14.10
2019-05-29T23:28:38.600Z,14.10
2019-05-29T23:31:07.484Z,14.00
2019-05-29T23:33:36.262Z,14.00
2019-05-29T23:36:05.469Z,13.90
2019-05-29T23:38:34.247Z,13.90
2019-05-29T23:41:03.783Z,13.90
2019-05-29T23:43:32.815Z,13.90
2019-05-29T23:46:02.386Z,13.90
2019-05-29T23:48:31.737Z,13.80
2019-05-29T23:51:01.751Z,13.70
2019-05-29T23:53:30.884Z,13.80
2019-05-29T23:55:59.778Z,13.70
2019-05-29T23:58:28.887Z,13.60
